sensor_id;sensor_type;location;lat;lon;timestamp;temperature;humidity
14016;DHT22;7083;48.854;9.158;2022-08-19T18:49:03;24.80;89.50
14016;DHT22;7083;48.854;9.158;2022-08-19T18:51:31;19.70;99.90
14016;DHT22;7083;48.854;9.158;2022-08-19T18:53:59;19.50;99.90
14016;DHT22;7083;48.854;9.158;2022-08-19T18:56:27;19.50;99.90
14016;DHT22;7083;48.854;9.158;2022-08-19T18:58:57;19.50;99.90
14016;DHT22;7083;48.854;9.158;2022-08-19T19:01:27;19.40;99.90
14016;DHT22;7083;48.854;9.158;2022-08-19T19:03:58;19.40;99.90
14016;DHT22;7083;48.854;9.158;2022-08-19T19:06:27;19.40;99.90
14016;DHT22;7083;48.854;9.158;2022-08-19T19:08:56;19.40;99.90
14016;DHT22;7083;48.854;9.158;2022-08-19T19:11:27;19.50;99.90
14016;DHT22;7083;48.854;9.158;2022-08-19T19:13:55;19.50;99.90
14016;DHT22;7083;48.854;9.158;2022-08-19T19:16:22;19.50;99.90
14016;DHT22;7083;48.854;9.158;2022-08-19T19:18:48;19.40;99.90
14016;DHT22;7083;48.854;9.158;2022-08-19T19:21:17;19.40;99.90
14016;DHT22;7083;48.854;9.158;2022-08-19T19:23:43;19.40;99.90
14016;DHT22;7083;48.854;9.158;2022-08-19T19:26:12;19.40;99.90
14016;DHT22;7083;48.854;9.158;2022-08-19T19:28:41;19.40;99.90
14016;DHT22;7083;48.854;9.158;2022-08-19T19:31:12;19.40;99.90
14016;DHT22;7083;48.854;9.158;2022-08-19T19:33:39;19.40;99.90
14016;DHT22;7083;48.854;9.158;2022-08-19T19:36:06;19.40;99.90
14016;DHT22;7083;48.854;9.158;2022-08-19T19:38:33;19.40;99.90
14016;DHT22;7083;48.854;9.158;2022-08-19T19:41:00;19.40;99.90
14016;DHT22;7083;48.854;9.158;2022-08-19T19:43:28;19.40;99.90
14016;DHT22;7083;48.854;9.158;2022-08-19T19:45:56;19.30;99.90
14016;DHT22;7083;48.854;9.158;2022-08-19T19:48:23;19.30;99.90
14016;DHT22;7083;48.854;9.158;2022-08-19T19:50:53;19.30;99.90
14016;DHT22;7083;48.854;9.158;2022-08-19T19:53:20;19.40;99.90
14016;DHT22;7083;48.854;9.158;2022-08-19T19:55:47;19.40;99.90
14016;DHT22;7083;48.854;9.158;2022-08-19T19:58:14;19.40;99.90
14016;DHT22;7083;48.854;9.158;2022-08-19T20:00:42;19.30;99.90
14016;DHT22;7083;48.854;9.158;2022-08-19T20:03:09;19.30;99.90
14016;DHT22;7083;48.854;9.158;2022-08-19T20:05:36;19.40;99.90
14016;DHT22;7083;48.854;9.158;2022-08-19T20:08:03;19.30;99.90
14016;DHT22;7083;48.854;9.158;2022-08-19T20:10:47;19.30;99.90
14016;DHT22;7083;48.854;9.158;2022-08-19T20:13:14;19.30;99.90
14016;DHT22;7083;48.854;9.158;2022-08-19T20:15:42;19.30;99.90
14016;DHT22;7083;48.854;9.158;2022-08-19T20:18:11;19.30;99.90
14016;DHT22;7083;48.854;9.158;2022-08-19T20:20:39;19.30;99.90
14016;DHT22;7083;48.854;9.158;2022-08-19T20:23:06;19.30;99.90
14016;DHT22;7083;48.854;9.158;2022-08-19T20:25:32;19.30;99.90
14016;DHT22;7083;48.854;9.158;2022-08-19T20:27:59;19.30;99.90
14016;DHT22;7083;48.854;9.158;2022-08-19T20:30:26;19.30;99.90
14016;DHT22;7083;48.854;9.158;2022-08-19T20:32:54;19.30;99.90
14016;DHT22;7083;48.854;9.158;2022-08-19T20:35:22;19.30;99.90
14016;DHT22;7083;48.854;9.158;2022-08-19T20:37:49;19.30;99.90
14016;DHT22;7083;48.854;9.158;2022-08-19T20:40:16;19.30;99.90
14016;DHT22;7083;48.854;9.158;2022-08-19T20:42:43;19.30;99.90
14016;DHT22;7083;48.854;9.158;2022-08-19T20:45:12;19.20;99.90
14016;DHT22;7083;48.854;9.158;2022-08-19T20:47:40;19.20;99.90
14016;DHT22;7083;48.854;9.158;2022-08-19T20:50:09;19.10;99.90
14016;DHT22;7083;48.854;9.158;2022-08-19T20:52:37;19.10;99.90
14016;DHT22;7083;48.854;9.158;2022-08-19T20:55:05;19.10;99.90
14016;DHT22;7083;48.854;9.158;2022-08-19T20:57:31;19.10;99.90
14016;DHT22;7083;48.854;9.158;2022-08-19T20:59:58;19.20;99.90
14016;DHT22;7083;48.854;9.158;2022-08-19T21:02:25;19.40;99.90
14016;DHT22;7083;48.854;9.158;2022-08-19T21:04:51;19.60;99.90
14016;DHT22;7083;48.854;9.158;2022-08-19T21:07:20;19.80;99.90
14016;DHT22;7083;48.854;9.158;2022-08-19T21:09:47;20.00;99.90
14016;DHT22;7083;48.854;9.158;2022-08-19T21:12:13;20.30;99.90
14016;DHT22;7083;48.854;9.158;2022-08-19T21:14:41;20.60;99.90
14016;DHT22;7083;48.854;9.158;2022-08-19T21:17:08;20.70;99.90
14016;DHT22;7083;48.854;9.158;2022-08-19T21:19:35;21.00;99.90
14016;DHT22;7083;48.854;9.158;2022-08-19T21:22:02;21.20;99.90
14016;DHT22;7083;48.854;9.158;2022-08-19T21:24:30;21.30;99.90
14016;DHT22;7083;48.854;9.158;2022-08-19T21:26:57;21.50;99.90
14016;DHT22;7083;48.854;9.158;2022-08-19T21:29:24;21.60;99.90
14016;DHT22;7083;48.854;9.158;2022-08-19T21:31:51;21.60;99.90
14016;DHT22;7083;48.854;9.158;2022-08-19T21:34:17;21.70;99.90
14016;DHT22;7083;48.854;9.158;2022-08-19T21:36:44;21.80;99.90
14016;DHT22;7083;48.854;9.158;2022-08-19T21:39:11;21.90;99.90
14016;DHT22;7083;48.854;9.158;2022-08-19T21:41:39;21.90;99.90
14016;DHT22;7083;48.854;9.158;2022-08-19T21:44:06;21.90;99.90
14016;DHT22;7083;48.854;9.158;2022-08-19T21:46:33;22.00;99.90
14016;DHT22;7083;48.854;9.158;2022-08-19T21:48:59;22.00;99.90
14016;DHT22;7083;48.854;9.158;2022-08-19T21:51:26;22.00;99.90
14016;DHT22;7083;48.854;9.158;2022-08-19T21:53:53;22.00;99.90
14016;DHT22;7083;48.854;9.158;2022-08-19T21:56:19;22.10;99.90
14016;DHT22;7083;48.854;9.158;2022-08-19T21:58:47;21.90;99.90
14016;DHT22;7083;48.854;9.158;2022-08-19T22:01:14;22.00;99.90
14016;DHT22;7083;48.854;9.158;2022-08-19T22:03:41;22.00;99.90
14016;DHT22;7083;48.854;9.158;2022-08-19T22:06:08;22.00;99.90
14016;DHT22;7083;48.854;9.158;2022-08-19T22:08:35;22.10;99.10
14016;DHT22;7083;48.854;9.158;2022-08-19T22:11:03;22.10;98.60
14016;DHT22;7083;48.854;9.158;2022-08-19T22:13:33;22.10;98.00
14016;DHT22;7083;48.854;9.158;2022-08-19T22:16:04;22.10;97.30
14016;DHT22;7083;48.854;9.158;2022-08-19T22:18:31;22.10;97.10
14016;DHT22;7083;48.854;9.158;2022-08-19T22:20:59;22.10;96.60
14016;DHT22;7083;48.854;9.158;2022-08-19T22:23:26;22.10;96.60
14016;DHT22;7083;48.854;9.158;2022-08-19T22:25:53;22.00;96.20
14016;DHT22;7083;48.854;9.158;2022-08-19T22:28:20;22.10;95.70
14016;DHT22;7083;48.854;9.158;2022-08-19T22:30:46;21.90;95.40
14016;DHT22;7083;48.854;9.158;2022-08-19T22:33:17;22.00;95.80
14016;DHT22;7083;48.854;9.158;2022-08-19T22:35:46;22.00;95.90
14016;DHT22;7083;48.854;9.158;2022-08-19T22:38:13;21.90;96.00
14016;DHT22;7083;48.854;9.158;2022-08-19T22:40:42;21.90;96.00
14016;DHT22;7083;48.854;9.158;2022-08-19T22:43:15;21.90;95.90
14016;DHT22;7083;48.854;9.158;2022-08-19T22:45:43;21.90;96.00
14016;DHT22;7083;48.854;9.158;2022-08-19T22:48:12;21.90;96.10
14016;DHT22;7083;48.854;9.158;2022-08-19T22:50:42;21.80;96.20
14016;DHT22;7083;48.854;9.158;2022-08-19T22:53:30;21.80;96.40
14016;DHT22;7083;48.854;9.158;2022-08-19T22:55:56;21.70;96.50
14016;DHT22;7083;48.854;9.158;2022-08-19T22:58:23;21.70;96.80
14016;DHT22;7083;48.854;9.158;2022-08-19T23:00:50;21.60;96.90
14016;DHT22;7083;48.854;9.158;2022-08-19T23:03:16;21.60;97.20
14016;DHT22;7083;48.854;9.158;2022-08-19T23:05:45;21.50;97.50
14016;DHT22;7083;48.854;9.158;2022-08-19T23:08:12;21.50;97.60
14016;DHT22;7083;48.854;9.158;2022-08-19T23:10:38;21.50;98.10
14016;DHT22;7083;48.854;9.158;2022-08-19T23:13:05;21.40;98.30
14016;DHT22;7083;48.854;9.158;2022-08-19T23:15:32;21.30;98.80
14016;DHT22;7083;48.854;9.158;2022-08-19T23:18:00;21.30;98.90
14016;DHT22;7083;48.854;9.158;2022-08-19T23:20:31;21.30;99.00
14016;DHT22;7083;48.854;9.158;2022-08-19T23:23:01;21.20;99.40
14016;DHT22;7083;48.854;9.158;2022-08-19T23:25:30;21.10;99.90
14016;DHT22;7083;48.854;9.158;2022-08-19T23:27:57;21.00;99.90
14016;DHT22;7083;48.854;9.158;2022-08-19T23:30:53;21.00;99.90
14016;DHT22;7083;48.854;9.158;2022-08-19T23:33:22;20.80;99.90
14016;DHT22;7083;48.854;9.158;2022-08-19T23:35:51;20.70;99.90
14016;DHT22;7083;48.854;9.158;2022-08-19T23:38:19;20.60;99.90
14016;DHT22;7083;48.854;9.158;2022-08-19T23:40:48;20.60;99.90
14016;DHT22;7083;48.854;9.158;2022-08-19T23:43:16;20.50;99.90
14016;DHT22;7083;48.854;9.158;2022-08-19T23:45:44;20.40;99.90
14016;DHT22;7083;48.854;9.158;2022-08-19T23:48:11;20.30;99.90
14016;DHT22;7083;48.854;9.158;2022-08-19T23:50:41;20.10;99.90
14016;DHT22;7083;48.854;9.158;2022-08-19T23:53:09;20.20;99.90
14016;DHT22;7083;48.854;9.158;2022-08-19T23:55:39;20.00;99.90
14016;DHT22;7083;48.854;9.158;2022-08-19T23:58:06;20.00;99.90
